sensor_id;sensor_type;location;lat;lon;timestamp;pressure;altitude;pressure_sealevel;temperature;humidity
16793;BME280;8513;42.662;23.350;2023-12-29T00:00:16;95567.16;;;3.97;64.07
16793;BME280;8513;42.662;23.350;2023-12-29T00:02:41;95583.59;;;3.98;63.97
16793;BME280;8513;42.662;23.350;2023-12-29T00:05:07;95574.78;;;4.01;63.50
16793;BME280;8513;42.662;23.350;2023-12-29T00:07:32;95574.97;;;3.70;64.54
16793;BME280;8513;42.662;23.350;2023-12-29T00:09:58;95578.25;;;3.87;64.13
16793;BME280;8513;42.662;23.350;2023-12-29T00:12:23;95578.41;;;3.98;63.69
16793;BME280;8513;42.662;23.350;2023-12-29T00:14:49;95582.41;;;4.04;63.53
16793;BME280;8513;42.662;23.350;2023-12-29T00:17:14;95580.22;;;3.83;63.94
16793;BME280;8513;42.662;23.350;2023-12-29T00:19:40;95576.78;;;3.83;63.97
16793;BME280;8513;42.662;23.350;2023-12-29T00:22:05;95584.50;;;3.84;63.96
16793;BME280;8513;42.662;23.350;2023-12-29T00:24:31;95585.63;;;3.80;64.22
16793;BME280;8513;42.662;23.350;2023-12-29T00:26:57;95575.56;;;3.88;63.61
16793;BME280;8513;42.662;23.350;2023-12-29T00:29:23;95580.22;;;3.83;64.00
16793;BME280;8513;42.662;23.350;2023-12-29T00:31:48;95578.91;;;3.90;63.43
16793;BME280;8513;42.662;23.350;2023-12-29T00:34:14;95577.78;;;3.94;63.26
16793;BME280;8513;42.662;23.350;2023-12-29T00:36:39;95580.31;;;3.82;63.49
16793;BME280;8513;42.662;23.350;2023-12-29T00:39:05;95577.03;;;3.92;63.35
16793;BME280;8513;42.662;23.350;2023-12-29T00:41:31;95582.03;;;3.95;64.05
16793;BME280;8513;42.662;23.350;2023-12-29T00:43:57;95575.47;;;3.90;64.35
16793;BME280;8513;42.662;23.350;2023-12-29T00:46:22;95579.00;;;3.89;63.99
16793;BME280;8513;42.662;23.350;2023-12-29T00:48:48;95570.56;;;3.85;64.00
16793;BME280;8513;42.662;23.350;2023-12-29T00:51:13;95569.22;;;3.92;63.82
16793;BME280;8513;42.662;23.350;2023-12-29T00:53:39;95559.75;;;3.91;64.09
16793;BME280;8513;42.662;23.350;2023-12-29T00:56:10;95559.91;;;4.03;64.49
16793;BME280;8513;42.662;23.350;2023-12-29T00:58:35;95563.81;;;3.95;65.29
16793;BME280;8513;42.662;23.350;2023-12-29T01:01:01;95550.94;;;3.94;64.90
16793;BME280;8513;42.662;23.350;2023-12-29T01:03:26;95549.44;;;3.90;64.49
16793;BME280;8513;42.662;23.350;2023-12-29T01:05:52;95563.72;;;3.97;64.51
16793;BME280;8513;42.662;23.350;2023-12-29T01:08:17;95558.09;;;3.90;64.54
16793;BME280;8513;42.662;23.350;2023-12-29T01:10:42;95543.22;;;3.92;64.52
16793;BME280;8513;42.662;23.350;2023-12-29T01:13:08;95556.69;;;3.85;64.84
16793;BME280;8513;42.662;23.350;2023-12-29T01:15:33;95552.72;;;3.79;65.34
16793;BME280;8513;42.662;23.350;2023-12-29T01:17:59;95555.50;;;3.90;64.84
16793;BME280;8513;42.662;23.350;2023-12-29T01:20:24;95553.28;;;3.84;64.79
16793;BME280;8513;42.662;23.350;2023-12-29T01:22:50;95562.41;;;3.77;64.71
16793;BME280;8513;42.662;23.350;2023-12-29T01:25:15;95561.72;;;3.88;64.28
16793;BME280;8513;42.662;23.350;2023-12-29T01:27:41;95566.91;;;3.46;65.73
16793;BME280;8513;42.662;23.350;2023-12-29T01:30:06;95563.84;;;3.54;65.29
16793;BME280;8513;42.662;23.350;2023-12-29T01:32:32;95556.59;;;3.59;65.40
16793;BME280;8513;42.662;23.350;2023-12-29T01:34:57;95564.00;;;3.65;64.94
16793;BME280;8513;42.662;23.350;2023-12-29T01:37:23;95562.34;;;3.64;65.20
16793;BME280;8513;42.662;23.350;2023-12-29T01:39:48;95564.59;;;3.56;64.84
16793;BME280;8513;42.662;23.350;2023-12-29T01:42:13;95560.84;;;3.60;64.84
16793;BME280;8513;42.662;23.350;2023-12-29T01:44:39;95563.75;;;3.41;65.32
16793;BME280;8513;42.662;23.350;2023-12-29T01:47:13;95575.84;;;3.42;65.55
16793;BME280;8513;42.662;23.350;2023-12-29T01:49:40;95568.16;;;3.26;66.33
16793;BME280;8513;42.662;23.350;2023-12-29T01:52:07;95566.94;;;3.32;65.81
16793;BME280;8513;42.662;23.350;2023-12-29T01:54:35;95566.38;;;3.27;66.46
16793;BME280;8513;42.662;23.350;2023-12-29T01:57:02;95559.50;;;3.26;67.02
16793;BME280;8513;42.662;23.350;2023-12-29T01:59:28;95553.00;;;3.33;67.05
16793;BME280;8513;42.662;23.350;2023-12-29T02:01:54;95548.38;;;3.38;67.57
16793;BME280;8513;42.662;23.350;2023-12-29T02:04:26;95548.25;;;3.54;67.41
16793;BME280;8513;42.662;23.350;2023-12-29T02:06:52;95549.44;;;3.63;67.31
16793;BME280;8513;42.662;23.350;2023-12-29T02:09:17;95551.66;;;3.69;66.48
16793;BME280;8513;42.662;23.350;2023-12-29T02:11:44;95543.94;;;3.67;65.91
16793;BME280;8513;42.662;23.350;2023-12-29T02:14:10;95545.28;;;3.46;66.11
16793;BME280;8513;42.662;23.350;2023-12-29T02:16:50;95552.06;;;3.48;66.70
16793;BME280;8513;42.662;23.350;2023-12-29T02:19:40;95533.47;;;3.54;66.23
16793;BME280;8513;42.662;23.350;2023-12-29T02:22:09;95532.66;;;3.54;65.80
16793;BME280;8513;42.662;23.350;2023-12-29T02:24:35;95535.59;;;3.62;65.75
16793;BME280;8513;42.662;23.350;2023-12-29T02:32:33;95529.03;;;3.57;65.96
16793;BME280;8513;42.662;23.350;2023-12-29T02:35:00;95519.03;;;3.36;66.44
16793;BME280;8513;42.662;23.350;2023-12-29T02:37:27;95514.66;;;3.37;66.42
16793;BME280;8513;42.662;23.350;2023-12-29T02:39:54;95510.94;;;3.41;65.73
16793;BME280;8513;42.662;23.350;2023-12-29T02:42:20;95493.41;;;3.30;66.31
16793;BME280;8513;42.662;23.350;2023-12-29T02:44:46;95497.25;;;3.24;66.75
16793;BME280;8513;42.662;23.350;2023-12-29T02:47:11;95495.03;;;3.18;67.80
16793;BME280;8513;42.662;23.350;2023-12-29T02:49:37;95491.66;;;3.30;66.74
16793;BME280;8513;42.662;23.350;2023-12-29T02:52:03;95494.38;;;3.29;66.56
16793;BME280;8513;42.662;23.350;2023-12-29T02:54:28;95501.97;;;3.32;66.35
16793;BME280;8513;42.662;23.350;2023-12-29T02:56:53;95481.16;;;3.32;66.35
16793;BME280;8513;42.662;23.350;2023-12-29T02:59:19;95477.22;;;3.39;65.91
16793;BME280;8513;42.662;23.350;2023-12-29T03:01:44;95482.63;;;3.36;66.00
16793;BME280;8513;42.662;23.350;2023-12-29T03:04:10;95482.06;;;3.45;65.70
16793;BME280;8513;42.662;23.350;2023-12-29T03:06:35;95479.84;;;3.39;65.80
16793;BME280;8513;42.662;23.350;2023-12-29T03:09:01;95476.03;;;3.45;65.88
16793;BME280;8513;42.662;23.350;2023-12-29T03:11:26;95464.91;;;3.43;65.48
16793;BME280;8513;42.662;23.350;2023-12-29T03:13:51;95472.03;;;3.39;65.49
16793;BME280;8513;42.662;23.350;2023-12-29T03:16:17;95467.44;;;3.30;65.65
16793;BME280;8513;42.662;23.350;2023-12-29T03:18:42;95462.16;;;3.17;66.35
16793;BME280;8513;42.662;23.350;2023-12-29T03:21:08;95473.75;;;3.26;65.82
16793;BME280;8513;42.662;23.350;2023-12-29T03:23:33;95459.69;;;3.16;66.15
16793;BME280;8513;42.662;23.350;2023-12-29T03:26:00;95459.28;;;3.22;66.15
16793;BME280;8513;42.662;23.350;2023-12-29T03:28:25;95460.31;;;3.19;66.18
16793;BME280;8513;42.662;23.350;2023-12-29T03:30:51;95469.16;;;3.02;66.43
16793;BME280;8513;42.662;23.350;2023-12-29T03:33:16;95475.84;;;2.78;67.55
16793;BME280;8513;42.662;23.350;2023-12-29T03:35:42;95469.53;;;2.82;67.93
16793;BME280;8513;42.662;23.350;2023-12-29T03:38:07;95461.56;;;2.85;66.96
16793;BME280;8513;42.662;23.350;2023-12-29T03:40:32;95463.69;;;2.93;66.75
16793;BME280;8513;42.662;23.350;2023-12-29T03:42:58;95469.72;;;2.93;66.80
16793;BME280;8513;42.662;23.350;2023-12-29T03:45:23;95461.84;;;2.95;66.45
16793;BME280;8513;42.662;23.350;2023-12-29T03:47:49;95468.41;;;2.86;66.75
16793;BME280;8513;42.662;23.350;2023-12-29T03:50:14;95462.97;;;2.76;67.26
16793;BME280;8513;42.662;23.350;2023-12-29T03:52:40;95484.47;;;2.64;67.85
16793;BME280;8513;42.662;23.350;2023-12-29T03:55:05;95486.06;;;2.81;67.19
16793;BME280;8513;42.662;23.350;2023-12-29T03:57:31;95477.88;;;2.87;67.50
16793;BME280;8513;42.662;23.350;2023-12-29T03:59:56;95483.88;;;3.02;66.73
16793;BME280;8513;42.662;23.350;2023-12-29T04:02:22;95485.28;;;2.93;66.74
16793;BME280;8513;42.662;23.350;2023-12-29T04:04:47;95476.38;;;2.83;66.74
16793;BME280;8513;42.662;23.350;2023-12-29T04:07:13;95480.66;;;2.98;66.40
16793;BME280;8513;42.662;23.350;2023-12-29T04:09:38;95482.97;;;2.88;66.38
16793;BME280;8513;42.662;23.350;2023-12-29T04:12:04;95485.50;;;2.90;66.41
16793;BME280;8513;42.662;23.350;2023-12-29T04:14:29;95480.19;;;2.77;66.44
16793;BME280;8513;42.662;23.350;2023-12-29T04:16:54;95475.94;;;2.76;67.25
16793;BME280;8513;42.662;23.350;2023-12-29T04:19:20;95481.69;;;2.81;67.99
16793;BME280;8513;42.662;23.350;2023-12-29T04:21:45;95473.72;;;2.70;68.49
16793;BME280;8513;42.662;23.350;2023-12-29T04:24:11;95480.19;;;2.77;68.57
16793;BME280;8513;42.662;23.350;2023-12-29T04:26:36;95477.13;;;2.85;67.03
16793;BME280;8513;42.662;23.350;2023-12-29T04:29:02;95483.53;;;2.79;66.90
16793;BME280;8513;42.662;23.350;2023-12-29T04:31:27;95480.88;;;2.81;66.51
16793;BME280;8513;42.662;23.350;2023-12-29T04:33:53;95476.38;;;2.83;66.25
16793;BME280;8513;42.662;23.350;2023-12-29T04:36:18;95481.31;;;2.73;66.47
16793;BME280;8513;42.662;23.350;2023-12-29T04:38:44;95473.44;;;2.60;66.85
16793;BME280;8513;42.662;23.350;2023-12-29T04:41:11;95487.25;;;2.75;66.65
16793;BME280;8513;42.662;23.350;2023-12-29T04:43:37;95476.13;;;2.73;66.40
16793;BME280;8513;42.662;23.350;2023-12-29T04:46:02;95481.03;;;2.78;66.23
16793;BME280;8513;42.662;23.350;2023-12-29T04:48:28;95487.34;;;2.74;66.54
16793;BME280;8513;42.662;23.350;2023-12-29T04:50:53;95484.94;;;2.71;66.43
16793;BME280;8513;42.662;23.350;2023-12-29T04:53:19;95481.41;;;2.72;66.31
16793;BME280;8513;42.662;23.350;2023-12-29T04:55:44;95478.63;;;2.75;65.95
16793;BME280;8513;42.662;23.350;2023-12-29T04:58:10;95471.03;;;2.57;66.49
16793;BME280;8513;42.662;23.350;2023-12-29T05:00:35;95465.38;;;2.65;66.66
16793;BME280;8513;42.662;23.350;2023-12-29T05:03:01;95461.09;;;2.64;66.59
16793;BME280;8513;42.662;23.350;2023-12-29T05:05:26;95464.81;;;2.60;66.71
16793;BME280;8513;42.662;23.350;2023-12-29T05:07:51;95467.03;;;2.66;66.25
16793;BME280;8513;42.662;23.350;2023-12-29T05:10:17;95469.44;;;2.55;66.49
16793;BME280;8513;42.662;23.350;2023-12-29T05:12:42;95458.59;;;2.62;66.00
16793;BME280;8513;42.662;23.350;2023-12-29T05:15:08;95462.47;;;2.70;65.93
16793;BME280;8513;42.662;23.350;2023-12-29T05:17:33;95453.22;;;2.65;65.94
16793;BME280;8513;42.662;23.350;2023-12-29T05:19:59;95451.53;;;2.64;66.29
16793;BME280;8513;42.662;23.350;2023-12-29T05:22:24;95451.75;;;2.47;66.96
16793;BME280;8513;42.662;23.350;2023-12-29T05:24:49;95454.16;;;2.36;67.45
16793;BME280;8513;42.662;23.350;2023-12-29T05:27:15;95457.56;;;2.51;66.80
16793;BME280;8513;42.662;23.350;2023-12-29T05:29:41;95460.28;;;2.49;67.00
16793;BME280;8513;42.662;23.350;2023-12-29T05:32:06;95465.66;;;2.46;67.05
16793;BME280;8513;42.662;23.350;2023-12-29T05:34:32;95464.16;;;2.42;67.09
16793;BME280;8513;42.662;23.350;2023-12-29T05:36:57;95461.84;;;2.52;66.79
16793;BME280;8513;42.662;23.350;2023-12-29T05:39:23;95459.97;;;2.54;66.89
16793;BME280;8513;42.662;23.350;2023-12-29T05:41:49;95455.44;;;2.43;66.92
16793;BME280;8513;42.662;23.350;2023-12-29T05:44:15;95475.47;;;2.55;66.48
16793;BME280;8513;42.662;23.350;2023-12-29T05:46:41;95466.56;;;2.45;67.22
16793;BME280;8513;42.662;23.350;2023-12-29T05:49:06;95476.03;;;2.46;67.06
16793;BME280;8513;42.662;23.350;2023-12-29T05:51:31;95472.13;;;2.53;66.61
16793;BME280;8513;42.662;23.350;2023-12-29T05:53:57;95473.44;;;2.60;66.60
16793;BME280;8513;42.662;23.350;2023-12-29T05:56:22;95473.88;;;2.53;66.73
16793;BME280;8513;42.662;23.350;2023-12-29T05:58:48;95465.66;;;2.46;67.16
16793;BME280;8513;42.662;23.350;2023-12-29T06:01:13;95467.94;;;2.51;67.25
16793;BME280;8513;42.662;23.350;2023-12-29T06:03:39;95466.47;;;2.47;67.36
16793;BME280;8513;42.662;23.350;2023-12-29T06:06:04;95458.97;;;2.42;67.58
16793;BME280;8513;42.662;23.350;2023-12-29T06:08:30;95465.00;;;2.57;67.05
16793;BME280;8513;42.662;23.350;2023-12-29T06:10:55;95453.19;;;2.51;66.97
16793;BME280;8513;42.662;23.350;2023-12-29T06:13:21;95445.72;;;2.47;67.00
16793;BME280;8513;42.662;23.350;2023-12-29T06:15:47;95454.41;;;2.31;68.24
16793;BME280;8513;42.662;23.350;2023-12-29T06:18:12;95451.16;;;2.42;68.02
16793;BME280;8513;42.662;23.350;2023-12-29T06:20:38;95454.06;;;2.52;67.88
16793;BME280;8513;42.662;23.350;2023-12-29T06:23:04;95453.50;;;2.61;67.67
16793;BME280;8513;42.662;23.350;2023-12-29T06:25:29;95458.25;;;2.54;67.32
16793;BME280;8513;42.662;23.350;2023-12-29T06:27:55;95465.81;;;3.00;65.88
16793;BME280;8513;42.662;23.350;2023-12-29T06:30:20;95468.69;;;2.67;66.85
16793;BME280;8513;42.662;23.350;2023-12-29T06:32:46;95465.53;;;2.48;67.41
16793;BME280;8513;42.662;23.350;2023-12-29T06:35:11;95465.88;;;2.27;68.01
16793;BME280;8513;42.662;23.350;2023-12-29T06:37:38;95471.00;;;2.29;67.77
16793;BME280;8513;42.662;23.350;2023-12-29T06:40:06;95480.75;;;2.39;68.16
16793;BME280;8513;42.662;23.350;2023-12-29T06:42:31;95475.63;;;2.24;68.12
16793;BME280;8513;42.662;23.350;2023-12-29T06:44:57;95463.22;;;2.29;68.20
16793;BME280;8513;42.662;23.350;2023-12-29T06:47:22;95462.88;;;2.49;67.56
16793;BME280;8513;42.662;23.350;2023-12-29T06:49:48;95464.72;;;2.47;67.24
16793;BME280;8513;42.662;23.350;2023-12-29T06:52:14;95464.44;;;2.52;67.26
16793;BME280;8513;42.662;23.350;2023-12-29T06:54:39;95467.31;;;2.61;67.36
16793;BME280;8513;42.662;23.350;2023-12-29T06:57:05;95472.31;;;2.64;67.01
16793;BME280;8513;42.662;23.350;2023-12-29T06:59:30;95460.38;;;2.62;67.38
16793;BME280;8513;42.662;23.350;2023-12-29T07:01:56;95480.00;;;2.80;66.94
16793;BME280;8513;42.662;23.350;2023-12-29T07:04:21;95480.13;;;2.79;67.16
16793;BME280;8513;42.662;23.350;2023-12-29T07:06:47;95484.38;;;3.08;66.41
16793;BME280;8513;42.662;23.350;2023-12-29T07:09:12;95470.47;;;2.95;66.42
16793;BME280;8513;42.662;23.350;2023-12-29T07:11:37;95478.53;;;2.91;66.63
16793;BME280;8513;42.662;23.350;2023-12-29T07:14:03;95472.59;;;2.88;66.76
16793;BME280;8513;42.662;23.350;2023-12-29T07:16:28;95472.22;;;2.95;66.56
16793;BME280;8513;42.662;23.350;2023-12-29T07:18:54;95466.19;;;2.94;66.43
16793;BME280;8513;42.662;23.350;2023-12-29T07:21:19;95471.25;;;3.10;66.39
16793;BME280;8513;42.662;23.350;2023-12-29T07:23:45;95477.13;;;3.14;66.34
16793;BME280;8513;42.662;23.350;2023-12-29T07:26:11;95454.63;;;3.27;66.25
16793;BME280;8513;42.662;23.350;2023-12-29T07:28:36;95440.06;;;3.51;65.61
16793;BME280;8513;42.662;23.350;2023-12-29T07:31:05;95454.56;;;3.56;65.36
16793;BME280;8513;42.662;23.350;2023-12-29T07:33:36;95447.09;;;3.64;65.81
16793;BME280;8513;42.662;23.350;2023-12-29T07:36:02;95448.53;;;3.68;65.98
16793;BME280;8513;42.662;23.350;2023-12-29T07:38:27;95445.06;;;3.54;66.11
16793;BME280;8513;42.662;23.350;2023-12-29T07:40:53;95444.28;;;3.67;65.95
16793;BME280;8513;42.662;23.350;2023-12-29T07:43:18;95436.50;;;3.67;65.96
16793;BME280;8513;42.662;23.350;2023-12-29T07:45:43;95450.69;;;3.88;65.36
16793;BME280;8513;42.662;23.350;2023-12-29T07:48:09;95447.88;;;3.91;65.15
16793;BME280;8513;42.662;23.350;2023-12-29T07:50:34;95438.44;;;4.03;64.50
16793;BME280;8513;42.662;23.350;2023-12-29T07:53:00;95450.72;;;4.14;64.29
16793;BME280;8513;42.662;23.350;2023-12-29T07:55:31;95459.81;;;4.21;64.73
16793;BME280;8513;42.662;23.350;2023-12-29T07:57:56;95470.34;;;4.45;63.72
16793;BME280;8513;42.662;23.350;2023-12-29T08:00:22;95460.13;;;4.42;63.96
16793;BME280;8513;42.662;23.350;2023-12-29T08:02:48;95467.66;;;4.47;63.79
16793;BME280;8513;42.662;23.350;2023-12-29T08:05:14;95461.38;;;4.36;63.70
16793;BME280;8513;42.662;23.350;2023-12-29T08:07:41;95469.09;;;4.38;63.92
16793;BME280;8513;42.662;23.350;2023-12-29T08:10:06;95470.44;;;4.56;63.64
16793;BME280;8513;42.662;23.350;2023-12-29T08:12:32;95463.38;;;4.58;63.40
16793;BME280;8513;42.662;23.350;2023-12-29T08:15:02;95465.25;;;4.82;62.88
16793;BME280;8513;42.662;23.350;2023-12-29T08:17:28;95450.56;;;4.68;63.21
16793;BME280;8513;42.662;23.350;2023-12-29T08:19:54;95467.19;;;4.78;63.34
16793;BME280;8513;42.662;23.350;2023-12-29T08:22:20;95464.94;;;4.61;63.21
16793;BME280;8513;42.662;23.350;2023-12-29T08:24:45;95462.13;;;4.64;63.16
16793;BME280;8513;42.662;23.350;2023-12-29T08:27:13;95469.19;;;4.62;63.90
16793;BME280;8513;42.662;23.350;2023-12-29T08:29:39;95461.06;;;4.79;62.64
16793;BME280;8513;42.662;23.350;2023-12-29T08:32:05;95467.31;;;4.90;62.38
16793;BME280;8513;42.662;23.350;2023-12-29T08:34:31;95469.19;;;4.88;62.53
16793;BME280;8513;42.662;23.350;2023-12-29T08:36:57;95469.88;;;5.02;61.86
16793;BME280;8513;42.662;23.350;2023-12-29T08:39:23;95478.78;;;5.00;61.08
16793;BME280;8513;42.662;23.350;2023-12-29T08:41:48;95472.31;;;5.05;61.02
16793;BME280;8513;42.662;23.350;2023-12-29T08:44:16;95460.84;;;5.08;60.99
16793;BME280;8513;42.662;23.350;2023-12-29T08:46:42;95467.78;;;5.07;61.08
16793;BME280;8513;42.662;23.350;2023-12-29T08:49:07;95473.00;;;5.20;60.27
16793;BME280;8513;42.662;23.350;2023-12-29T08:51:33;95473.78;;;5.34;60.09
16793;BME280;8513;42.662;23.350;2023-12-29T08:53:59;95464.72;;;5.26;60.03
16793;BME280;8513;42.662;23.350;2023-12-29T08:56:24;95470.53;;;5.43;59.41
16793;BME280;8513;42.662;23.350;2023-12-29T08:58:50;95467.59;;;5.47;59.40
16793;BME280;8513;42.662;23.350;2023-12-29T09:01:15;95477.69;;;5.52;59.58
16793;BME280;8513;42.662;23.350;2023-12-29T09:03:41;95463.88;;;5.63;59.41
16793;BME280;8513;42.662;23.350;2023-12-29T09:06:07;95464.44;;;5.79;59.23
16793;BME280;8513;42.662;23.350;2023-12-29T09:08:34;95471.63;;;5.88;59.44
16793;BME280;8513;42.662;23.350;2023-12-29T09:10:59;95469.94;;;5.87;59.39
16793;BME280;8513;42.662;23.350;2023-12-29T09:13:25;95465.63;;;5.99;59.41
16793;BME280;8513;42.662;23.350;2023-12-29T09:15:53;95460.44;;;6.10;59.52
16793;BME280;8513;42.662;23.350;2023-12-29T09:18:18;95455.81;;;6.14;59.48
16793;BME280;8513;42.662;23.350;2023-12-29T09:20:43;95457.78;;;6.23;59.73
16793;BME280;8513;42.662;23.350;2023-12-29T09:23:09;95450.19;;;6.31;59.80
16793;BME280;8513;42.662;23.350;2023-12-29T09:25:34;95450.53;;;6.38;59.44
16793;BME280;8513;42.662;23.350;2023-12-29T09:28:00;95444.75;;;6.46;59.77
16793;BME280;8513;42.662;23.350;2023-12-29T09:30:25;95446.31;;;6.59;59.30
16793;BME280;8513;42.662;23.350;2023-12-29T09:32:50;95440.03;;;6.62;59.54
16793;BME280;8513;42.662;23.350;2023-12-29T09:35:16;95431.34;;;6.73;59.24
16793;BME280;8513;42.662;23.350;2023-12-29T09:37:42;95433.75;;;6.87;59.22
16793;BME280;8513;42.662;23.350;2023-12-29T09:40:10;95433.84;;;6.97;59.51
16793;BME280;8513;42.662;23.350;2023-12-29T09:42:37;95432.78;;;7.11;59.62
16793;BME280;8513;42.662;23.350;2023-12-29T09:45:08;95418.75;;;7.12;59.24
16793;BME280;8513;42.662;23.350;2023-12-29T09:47:37;95413.50;;;7.23;59.39
16793;BME280;8513;42.662;23.350;2023-12-29T09:50:04;95424.91;;;7.33;59.12
16793;BME280;8513;42.662;23.350;2023-12-29T09:52:30;95426.66;;;7.44;58.60
16793;BME280;8513;42.662;23.350;2023-12-29T09:54:56;95426.78;;;7.42;58.99
16793;BME280;8513;42.662;23.350;2023-12-29T09:57:22;95410.00;;;7.45;58.47
16793;BME280;8513;42.662;23.350;2023-12-29T09:59:50;95408.88;;;7.59;57.81
16793;BME280;8513;42.662;23.350;2023-12-29T10:02:20;95411.25;;;7.73;56.87
16793;BME280;8513;42.662;23.350;2023-12-29T10:04:47;95398.84;;;7.75;56.71
16793;BME280;8513;42.662;23.350;2023-12-29T10:07:22;95391.69;;;7.77;56.13
16793;BME280;8513;42.662;23.350;2023-12-29T10:09:50;95398.25;;;8.04;55.74
16793;BME280;8513;42.662;23.350;2023-12-29T10:12:17;95384.09;;;7.74;56.47
16793;BME280;8513;42.662;23.350;2023-12-29T10:15:00;95376.97;;;7.76;57.23
16793;BME280;8513;42.662;23.350;2023-12-29T10:20:27;95371.47;;;7.79;56.65
16793;BME280;8513;42.662;23.350;2023-12-29T10:23:08;95371.53;;;8.10;55.71
16793;BME280;8513;42.662;23.350;2023-12-29T10:25:38;95371.22;;;8.03;55.85
16793;BME280;8513;42.662;23.350;2023-12-29T10:28:05;95353.66;;;8.15;55.75
16793;BME280;8513;42.662;23.350;2023-12-29T10:30:31;95351.16;;;8.34;55.13
16793;BME280;8513;42.662;23.350;2023-12-29T10:32:57;95342.88;;;8.60;54.54
16793;BME280;8513;42.662;23.350;2023-12-29T10:35:25;95334.03;;;8.51;54.68
16793;BME280;8513;42.662;23.350;2023-12-29T10:37:50;95340.88;;;8.73;54.37
16793;BME280;8513;42.662;23.350;2023-12-29T10:40:19;95333.88;;;8.83;54.57
16793;BME280;8513;42.662;23.350;2023-12-29T10:42:52;95329.66;;;9.02;53.97
16793;BME280;8513;42.662;23.350;2023-12-29T10:45:18;95329.78;;;9.10;53.53
16793;BME280;8513;42.662;23.350;2023-12-29T10:47:44;95320.16;;;9.20;53.61
16793;BME280;8513;42.662;23.350;2023-12-29T10:50:09;95321.81;;;9.31;53.41
16793;BME280;8513;42.662;23.350;2023-12-29T10:52:34;95320.31;;;9.67;52.68
16793;BME280;8513;42.662;23.350;2023-12-29T10:55:09;95308.94;;;9.96;51.52
16793;BME280;8513;42.662;23.350;2023-12-29T10:57:36;95309.19;;;10.12;50.87
16793;BME280;8513;42.662;23.350;2023-12-29T11:00:02;95314.84;;;10.18;50.66
16793;BME280;8513;42.662;23.350;2023-12-29T11:02:29;95300.38;;;10.04;50.92
16793;BME280;8513;42.662;23.350;2023-12-29T11:05:06;95298.28;;;10.17;50.70
16793;BME280;8513;42.662;23.350;2023-12-29T11:07:33;95294.28;;;10.03;51.07
16793;BME280;8513;42.662;23.350;2023-12-29T11:10:03;95282.97;;;9.83;51.73
16793;BME280;8513;42.662;23.350;2023-12-29T11:12:33;95283.09;;;9.91;51.39
16793;BME280;8513;42.662;23.350;2023-12-29T11:15:04;95281.72;;;9.97;51.77
16793;BME280;8513;42.662;23.350;2023-12-29T11:17:31;95278.13;;;10.08;51.44
16793;BME280;8513;42.662;23.350;2023-12-29T11:20:02;95285.81;;;10.19;51.48
16793;BME280;8513;42.662;23.350;2023-12-29T11:22:29;95279.59;;;10.30;51.23
16793;BME280;8513;42.662;23.350;2023-12-29T11:24:56;95277.78;;;10.30;50.97
16793;BME280;8513;42.662;23.350;2023-12-29T11:27:26;95271.94;;;10.36;51.15
16793;BME280;8513;42.662;23.350;2023-12-29T11:29:53;95271.53;;;10.31;51.06
16793;BME280;8513;42.662;23.350;2023-12-29T11:32:22;95271.78;;;10.48;50.82
16793;BME280;8513;42.662;23.350;2023-12-29T11:34:57;95271.72;;;10.57;50.75
16793;BME280;8513;42.662;23.350;2023-12-29T11:37:55;95270.28;;;10.73;50.16
16793;BME280;8513;42.662;23.350;2023-12-29T11:40:38;95272.06;;;10.45;50.73
16793;BME280;8513;42.662;23.350;2023-12-29T11:43:12;95264.44;;;10.51;50.87
16793;BME280;8513;42.662;23.350;2023-12-29T11:45:39;95264.84;;;10.47;51.13
16793;BME280;8513;42.662;23.350;2023-12-29T11:48:05;95255.53;;;10.62;50.72
16793;BME280;8513;42.662;23.350;2023-12-29T11:50:38;95264.00;;;10.56;51.20
16793;BME280;8513;42.662;23.350;2023-12-29T11:53:07;95251.69;;;10.74;50.22
16793;BME280;8513;42.662;23.350;2023-12-29T11:55:37;95243.97;;;10.73;50.57
16793;BME280;8513;42.662;23.350;2023-12-29T11:58:24;95245.31;;;10.77;50.21
16793;BME280;8513;42.662;23.350;2023-12-29T12:00:49;95252.25;;;10.78;50.20
16793;BME280;8513;42.662;23.350;2023-12-29T12:03:18;95239.09;;;10.78;50.23
16793;BME280;8513;42.662;23.350;2023-12-29T12:05:48;95250.44;;;10.78;50.25
16793;BME280;8513;42.662;23.350;2023-12-29T12:10:52;95237.81;;;10.64;50.98
16793;BME280;8513;42.662;23.350;2023-12-29T12:13:42;95235.94;;;10.74;50.68
16793;BME280;8513;42.662;23.350;2023-12-29T12:16:08;95231.47;;;11.02;50.30
16793;BME280;8513;42.662;23.350;2023-12-29T12:18:33;95238.84;;;11.35;49.37
16793;BME280;8513;42.662;23.350;2023-12-29T12:20:59;95233.13;;;11.39;49.41
16793;BME280;8513;42.662;23.350;2023-12-29T12:23:28;95228.31;;;11.53;49.32
16793;BME280;8513;42.662;23.350;2023-12-29T12:25:57;95223.94;;;11.43;49.03
16793;BME280;8513;42.662;23.350;2023-12-29T12:28:24;95226.56;;;11.61;48.92
16793;BME280;8513;42.662;23.350;2023-12-29T12:30:50;95235.88;;;11.74;48.62
16793;BME280;8513;42.662;23.350;2023-12-29T12:33:15;95232.63;;;11.80;48.54
16793;BME280;8513;42.662;23.350;2023-12-29T12:35:41;95239.41;;;11.82;48.24
16793;BME280;8513;42.662;23.350;2023-12-29T12:38:15;95238.25;;;11.85;48.38
16793;BME280;8513;42.662;23.350;2023-12-29T12:40:47;95233.59;;;12.23;47.19
16793;BME280;8513;42.662;23.350;2023-12-29T12:43:16;95238.81;;;12.14;46.46
16793;BME280;8513;42.662;23.350;2023-12-29T12:45:47;95229.78;;;12.17;45.90
16793;BME280;8513;42.662;23.350;2023-12-29T12:48:22;95231.91;;;12.13;45.96
16793;BME280;8513;42.662;23.350;2023-12-29T12:50:49;95230.31;;;12.29;45.50
16793;BME280;8513;42.662;23.350;2023-12-29T12:53:16;95227.88;;;12.35;44.79
16793;BME280;8513;42.662;23.350;2023-12-29T12:55:51;95231.13;;;12.29;45.01
16793;BME280;8513;42.662;23.350;2023-12-29T12:58:18;95233.78;;;12.29;44.71
16793;BME280;8513;42.662;23.350;2023-12-29T13:00:45;95236.50;;;12.46;44.51
16793;BME280;8513;42.662;23.350;2023-12-29T13:03:10;95220.44;;;12.65;44.22
16793;BME280;8513;42.662;23.350;2023-12-29T13:05:37;95227.00;;;12.61;43.77
16793;BME280;8513;42.662;23.350;2023-12-29T13:08:03;95229.47;;;12.54;43.63
16793;BME280;8513;42.662;23.350;2023-12-29T13:10:30;95231.84;;;12.74;43.71
16793;BME280;8513;42.662;23.350;2023-12-29T13:12:56;95238.13;;;12.81;43.41
16793;BME280;8513;42.662;23.350;2023-12-29T13:15:21;95232.97;;;12.71;43.75
16793;BME280;8513;42.662;23.350;2023-12-29T13:17:54;95223.97;;;12.90;43.43